»·PEaware :: RRF98 KBOI-KRTS

RRF98 :: KBOI-KRTS

FLIGHT INFORMATION

Flight Status: Arrived
Operator: Unknown
More flights by this operator :: More flights under this callsign
Pilot: Matthew M. (8235)
Aircraft: BRITISH AERO BAe-146-100 STATESMAN
(B461)
More flights by this aircraft type
Origin: KBOI Boise Air Terminal/Gowen
United States
Destination: KRTS Reno/Stead
United States
More flights between these airports :: More routes between these airports
Route: +BOI3 BOI J7 REO HZN
File this flight plan on PilotEdge
Remarks:
Altitude:
(Current/Filed)
24,000ft
Speed:
(Current/Filed)
300kts
Departed: 29-Apr-20 12:07 PM
Arrived: 29-Apr-20 01:16 PM
Distance/Time
Traveled:
286nm/1:08
Distance/Time
To Go:
Arrived

Flight Plot

Page will automatically refresh every two minutes.


Map Options




Map Legend


Flown Route
Filed Route
Departure Airport
Arrival Airport
Navaid (VOR, NDB)
Fix

Horizontal Profiles

Position Reports

Time Latitude Longitude Heading Altitude Ground
Speed
29-Apr-20 11:47 43.570156 -116.229856 5 2879ft 0kts
29-Apr-20 11:48 43.570156 -116.229856 5 2879ft 0kts
29-Apr-20 11:49 43.570156 -116.229856 5 2879ft 0kts
29-Apr-20 11:50 43.570156 -116.229856 5 2879ft 0kts
29-Apr-20 11:51 43.570156 -116.229856 5 2879ft 0kts
29-Apr-20 11:52 43.570156 -116.229856 5 2879ft 0kts
29-Apr-20 11:53 43.570156 -116.229856 5 2879ft 0kts
29-Apr-20 11:54 43.570156 -116.229856 5 2879ft 0kts
29-Apr-20 11:55 43.570156 -116.229856 5 2879ft 0kts
29-Apr-20 11:56 43.570156 -116.229856 5 2879ft 0kts
29-Apr-20 11:57 43.570156 -116.229856 5 2879ft 0kts
29-Apr-20 11:58 43.570156 -116.229856 5 2879ft 0kts
29-Apr-20 11:59 43.570156 -116.229856 5 2879ft 0kts
29-Apr-20 12:00 43.570156 -116.229856 5 2879ft 0kts
29-Apr-20 12:01 43.570157 -116.229856 5 2879ft 0kts
29-Apr-20 12:02 43.570074 -116.230285 206 2879ft 3kts
29-Apr-20 12:03 43.569665 -116.231625 300 2879ft 15kts
29-Apr-20 12:04 43.570797 -116.236027 218 2879ft 0kts
29-Apr-20 12:05 43.569972 -116.236303 114 2879ft 0kts
29-Apr-20 12:06 43.559961 -116.207223 118 3297ft 131kts
29-Apr-20 12:07 43.541140 -116.159831 122 4789ft 151kts
29-Apr-20 12:08 43.525977 -116.098256 111 5840ft 195kts
29-Apr-20 12:09 43.501848 -116.018109 129 6469ft 248kts
29-Apr-20 12:10 43.440098 -116.024686 234 7413ft 266kts
29-Apr-20 12:11 43.414756 -116.122675 252 8873ft 282kts
29-Apr-20 12:12 43.392708 -116.233407 253 11807ft 303kts
29-Apr-20 12:13 43.370602 -116.346868 252 14771ft 314kts
29-Apr-20 12:14 43.348328 -116.465058 253 17485ft 323kts
29-Apr-20 12:15 43.327678 -116.586987 252 19988ft 332kts
29-Apr-20 12:16 43.279579 -116.694938 231 22265ft 338kts
29-Apr-20 12:17 43.219131 -116.796730 231 23976ft 356kts
29-Apr-20 12:18 43.156143 -116.904158 232 24067ft 361kts
29-Apr-20 12:19 43.094261 -117.010622 231 24069ft 351kts
29-Apr-20 12:20 43.033952 -117.114203 231 24071ft 343kts
29-Apr-20 12:21 42.975082 -117.215048 231 24077ft 337kts
29-Apr-20 12:22 42.916516 -117.315787 231 24082ft 341kts
29-Apr-20 12:23 42.857017 -117.418366 231 24085ft 348kts
29-Apr-20 12:24 42.795619 -117.522231 231 24087ft 354kts
29-Apr-20 12:25 42.733421 -117.627102 230 24088ft 358kts
29-Apr-20 12:26 42.670333 -117.733027 230 24088ft 360kts
29-Apr-20 12:28 42.606382 -117.837567 222 24087ft 359kts
29-Apr-20 12:29 42.516588 -117.895068 198 24089ft 362kts
29-Apr-20 12:30 42.419051 -117.928860 197 24089ft 361kts
29-Apr-20 12:31 42.321763 -117.964358 198 24090ft 360kts
29-Apr-20 12:32 42.225050 -118.000797 198 24091ft 360kts
29-Apr-20 12:33 42.128847 -118.037445 198 24093ft 360kts
29-Apr-20 12:34 42.032382 -118.074001 198 24096ft 359kts
29-Apr-20 12:35 41.936079 -118.110385 198 24099ft 359kts
29-Apr-20 12:36 41.839400 -118.146851 198 24102ft 359kts
29-Apr-20 12:37 41.743232 -118.182960 198 24105ft 359kts
29-Apr-20 12:38 41.646772 -118.219078 198 24107ft 359kts
29-Apr-20 12:39 41.550550 -118.255146 198 24110ft 359kts
29-Apr-20 12:40 41.453981 -118.291383 198 24115ft 359kts
29-Apr-20 12:41 41.357847 -118.327389 198 24119ft 359kts
29-Apr-20 12:42 41.261676 -118.363340 198 24119ft 359kts
29-Apr-20 12:42 41.181204 -118.393460 198 24119ft 360kts
29-Apr-20 12:44 41.068384 -118.435307 198 24120ft 360kts
29-Apr-20 12:45 40.971847 -118.470742 198 24120ft 360kts
29-Apr-20 12:45 40.891254 -118.500248 198 24122ft 361kts
29-Apr-20 12:46 40.794282 -118.535542 197 24126ft 361kts
29-Apr-20 12:47 40.697316 -118.570845 198 24126ft 361kts
29-Apr-20 12:49 40.584010 -118.611828 198 24125ft 362kts
29-Apr-20 12:49 40.502945 -118.641180 198 24126ft 362kts
29-Apr-20 12:50 40.405776 -118.676111 197 24126ft 362kts
29-Apr-20 12:51 40.308476 -118.711127 197 24148ft 359kts
29-Apr-20 12:52 40.215859 -118.744249 197 22593ft 345kts
29-Apr-20 12:53 40.122415 -118.777686 197 20460ft 344kts
29-Apr-20 12:54 40.031451 -118.810226 197 18735ft 335kts
29-Apr-20 12:55 39.945536 -118.841369 197 18128ft 303kts
29-Apr-20 12:56 39.868117 -118.869547 197 18126ft 272kts
29-Apr-20 12:57 39.796553 -118.895148 196 18127ft 270kts
29-Apr-20 12:58 39.721774 -118.921594 196 18129ft 285kts
29-Apr-20 12:59 39.646587 -118.947981 196 15913ft 278kts
29-Apr-20 13:00 39.572689 -118.973976 196 13765ft 272kts
29-Apr-20 13:01 39.524957 -119.042904 249 12289ft 273kts
29-Apr-20 13:02 39.510008 -119.139464 258 11031ft 275kts
29-Apr-20 13:03 39.499820 -119.237624 260 9935ft 274kts
29-Apr-20 13:04 39.490095 -119.337029 261 9474ft 287kts
29-Apr-20 13:05 39.480258 -119.442097 261 9476ft 294kts
29-Apr-20 13:06 39.471040 -119.543660 261 9478ft 272kts
29-Apr-20 13:07 39.462767 -119.638171 261 9476ft 257kts
29-Apr-20 13:08 39.478662 -119.723840 304 9478ft 260kts
29-Apr-20 13:09 39.534689 -119.783234 329 8748ft 262kts
29-Apr-20 13:10 39.599508 -119.824197 342 7504ft 256kts
29-Apr-20 13:11 39.663717 -119.844353 346 6980ft 210kts
29-Apr-20 13:12 39.713368 -119.869132 335 6670ft 154kts
29-Apr-20 13:13 39.707842 -119.896935 171 5587ft 134kts
29-Apr-20 13:14 39.673931 -119.876176 154 5058ft 104kts
29-Apr-20 13:15 39.661255 -119.868258 241 5058ft 8kts
29-Apr-20 13:16 39.661162 -119.873193 277 5058ft 16kts
29-Apr-20 13:17 39.660756 -119.874467 276 5058ft 0kts
29-Apr-20 13:18 39.660756 -119.874467 276 5058ft 0kts
29-Apr-20 13:19 39.660756 -119.874467 276 5058ft 0kts

Navigation Log

Ident Type
Flight plan parsing failed, navigation log unavailable